createdAt,value
2023-04-30T00:00:00.662Z,28.29
2023-04-30T00:01:00.686Z,28.36
2023-04-30T00:02:00.738Z,28.36
2023-04-30T00:03:00.806Z,28.31
2023-04-30T00:04:00.741Z,28.29
2023-04-30T00:05:00.659Z,28.33
2023-04-30T00:06:00.732Z,28.40
2023-04-30T00:07:00.767Z,28.34
2023-04-30T00:08:00.867Z,28.34
2023-04-30T00:09:00.886Z,28.31
2023-04-30T00:10:00.885Z,28.38
2023-04-30T00:11:00.897Z,28.31
2023-04-30T00:12:00.906Z,28.33
2023-04-30T00:13:00.926Z,28.31
2023-04-30T00:14:00.934Z,28.33
2023-04-30T00:15:00.954Z,28.34
2023-04-30T00:16:01.101Z,28.30
2023-04-30T00:17:01.068Z,28.34
2023-04-30T00:18:01.079Z,28.31
2023-04-30T00:19:01.063Z,28.29
2023-04-30T00:20:01.109Z,28.34
2023-04-30T00:21:01.039Z,28.38
2023-04-30T00:22:01.054Z,28.35
2023-04-30T00:23:01.129Z,28.34
2023-04-30T00:24:01.256Z,28.32
2023-04-30T00:25:01.304Z,28.37
2023-04-30T00:26:01.381Z,28.28
2023-04-30T00:27:01.391Z,28.35
2023-04-30T00:28:01.435Z,28.38
2023-04-30T00:29:01.418Z,28.34
2023-04-30T00:30:01.416Z,28.33
2023-04-30T00:31:01.396Z,28.34
2023-04-30T00:32:01.500Z,28.34
2023-04-30T00:33:01.574Z,28.34
2023-04-30T00:34:01.605Z,28.32
2023-04-30T00:35:01.626Z,28.34
2023-04-30T00:36:01.590Z,28.41
2023-04-30T00:37:01.595Z,28.41
2023-04-30T00:38:01.613Z,28.35
2023-04-30T00:39:01.614Z,28.40
2023-04-30T00:40:01.654Z,28.34
2023-04-30T00:41:01.667Z,28.37
2023-04-30T00:42:01.629Z,28.34
2023-04-30T00:43:01.642Z,28.34
2023-04-30T00:44:01.667Z,28.37
2023-04-30T00:45:01.640Z,28.37
2023-04-30T00:46:01.750Z,28.38
2023-04-30T00:47:01.770Z,28.34
2023-04-30T00:48:01.773Z,28.32
2023-04-30T00:49:01.760Z,28.37
2023-04-30T00:50:01.730Z,28.35
2023-04-30T00:51:01.764Z,28.44
2023-04-30T00:52:01.754Z,28.38
2023-04-30T00:53:01.805Z,28.35
2023-04-30T00:54:01.816Z,28.41
2023-04-30T00:55:01.799Z,28.31
2023-04-30T00:56:01.771Z,28.38
2023-04-30T00:57:01.787Z,28.37
2023-04-30T00:58:01.781Z,28.38
2023-04-30T00:59:01.817Z,28.37
2023-04-30T01:00:01.831Z,28.37
2023-04-30T01:01:02.785Z,28.38
2023-04-30T01:02:01.840Z,28.37
2023-04-30T01:03:01.967Z,28.41
2023-04-30T01:04:01.888Z,28.44
2023-04-30T01:05:01.852Z,28.37
2023-04-30T01:06:01.856Z,28.41
2023-04-30T01:07:01.899Z,28.38
2023-04-30T01:08:01.987Z,28.40
2023-04-30T01:09:01.975Z,28.41
2023-04-30T01:10:01.963Z,28.41
2023-04-30T01:11:01.964Z,28.42
2023-04-30T01:12:01.960Z,28.38
2023-04-30T01:13:01.965Z,28.40
2023-04-30T01:14:02.013Z,28.37
2023-04-30T01:15:02.134Z,28.40
2023-04-30T01:16:02.130Z,28.42
2023-04-30T01:17:02.108Z,28.40
2023-04-30T01:18:02.224Z,28.40
2023-04-30T01:19:02.228Z,28.35
2023-04-30T01:20:02.103Z,28.38
2023-04-30T01:21:02.137Z,28.42
2023-04-30T01:22:02.147Z,28.38
2023-04-30T01:23:02.125Z,28.40
2023-04-30T01:24:02.124Z,28.38
2023-04-30T01:25:02.145Z,28.40
2023-04-30T01:26:02.130Z,28.42
2023-04-30T01:27:02.201Z,28.41
2023-04-30T01:28:02.300Z,28.38
2023-04-30T01:29:02.380Z,28.42
2023-04-30T01:30:02.477Z,28.44
2023-04-30T01:31:02.676Z,28.38
2023-04-30T01:32:02.687Z,28.44
2023-04-30T01:33:02.776Z,28.41
2023-04-30T01:34:02.760Z,28.47
2023-04-30T01:35:03.438Z,28.42
2023-04-30T01:36:02.719Z,28.48
2023-04-30T01:37:02.739Z,28.38
2023-04-30T01:38:02.745Z,28.45
2023-04-30T01:39:02.744Z,28.37
2023-04-30T01:40:02.734Z,28.38
2023-04-30T01:41:02.718Z,28.41
2023-04-30T01:42:02.825Z,28.41
2023-04-30T01:43:02.992Z,28.42
2023-04-30T01:44:02.997Z,28.47
2023-04-30T01:45:03.098Z,28.41
2023-04-30T01:46:03.143Z,28.42
2023-04-30T01:47:03.050Z,28.42
2023-04-30T01:48:03.079Z,28.41
2023-04-30T01:49:03.093Z,28.44
2023-04-30T01:50:03.071Z,28.44
2023-04-30T01:51:03.162Z,28.44
2023-04-30T01:52:03.141Z,28.42
2023-04-30T01:53:03.164Z,28.50
2023-04-30T01:54:03.146Z,28.42
2023-04-30T01:55:03.141Z,28.45
2023-04-30T01:56:03.130Z,28.45
2023-04-30T01:57:03.137Z,28.40
2023-04-30T01:58:03.255Z,28.40
2023-04-30T01:59:03.345Z,28.41
2023-04-30T02:00:03.245Z,28.35
2023-04-30T02:01:03.254Z,28.41
2023-04-30T02:02:03.233Z,28.50
2023-04-30T02:03:03.302Z,28.48
2023-04-30T02:04:03.396Z,28.47
2023-04-30T02:05:03.396Z,28.42
2023-04-30T02:06:03.517Z,28.45
2023-04-30T02:07:03.497Z,28.47
2023-04-30T02:08:03.545Z,28.41
2023-04-30T02:09:03.592Z,28.48
2023-04-30T02:10:03.479Z,28.45
2023-04-30T02:11:03.484Z,28.48
2023-04-30T02:12:03.517Z,28.52
2023-04-30T02:13:03.605Z,28.44
2023-04-30T02:14:03.628Z,28.44
2023-04-30T02:15:03.633Z,28.48
2023-04-30T02:16:03.698Z,28.48
2023-04-30T02:17:03.624Z,28.48
2023-04-30T02:18:03.678Z,28.51
2023-04-30T02:19:03.677Z,28.51
2023-04-30T02:20:03.756Z,28.49
2023-04-30T02:21:03.903Z,28.47
2023-04-30T02:22:03.967Z,28.47
2023-04-30T02:23:04.078Z,28.51
2023-04-30T02:24:04.063Z,28.49
2023-04-30T02:25:04.098Z,28.44
2023-04-30T02:26:04.097Z,28.50
2023-04-30T02:27:04.130Z,28.48
2023-04-30T02:28:04.158Z,28.49
2023-04-30T02:29:04.192Z,28.50
2023-04-30T02:30:04.252Z,28.49
2023-04-30T02:31:04.261Z,28.47
2023-04-30T02:32:04.591Z,28.49
2023-04-30T02:33:04.470Z,28.52
2023-04-30T02:34:04.390Z,28.50
2023-04-30T02:35:04.398Z,28.48
2023-04-30T02:36:04.432Z,28.48
2023-04-30T02:37:04.457Z,28.51
2023-04-30T02:38:04.464Z,28.50
2023-04-30T02:39:04.520Z,28.52
2023-04-30T02:40:04.563Z,28.51
2023-04-30T02:41:04.552Z,28.51
2023-04-30T02:42:04.593Z,28.48
2023-04-30T02:43:04.651Z,28.51
2023-04-30T02:44:04.665Z,28.49
2023-04-30T02:45:04.696Z,28.55
2023-04-30T02:46:04.761Z,28.51
2023-04-30T02:47:04.754Z,28.52
2023-04-30T02:48:04.796Z,28.44
2023-04-30T02:49:04.842Z,28.42
2023-04-30T02:50:04.827Z,28.52
2023-04-30T02:51:04.897Z,28.44
2023-04-30T02:52:04.907Z,28.51
2023-04-30T02:53:04.927Z,28.51
2023-04-30T02:54:04.966Z,28.47
2023-04-30T02:55:05.075Z,28.48
2023-04-30T02:56:05.037Z,28.49
2023-04-30T02:57:05.041Z,28.49
2023-04-30T02:58:05.078Z,28.51
2023-04-30T02:59:05.119Z,28.49
2023-04-30T03:00:05.184Z,28.49
2023-04-30T03:01:05.223Z,28.48
2023-04-30T03:02:05.246Z,28.52
2023-04-30T03:03:05.335Z,28.52
2023-04-30T03:04:05.285Z,28.49
2023-04-30T03:05:05.329Z,28.51
2023-04-30T03:06:05.331Z,28.52
2023-04-30T03:07:05.344Z,28.49
2023-04-30T03:08:05.420Z,28.55
2023-04-30T03:09:05.430Z,28.50
2023-04-30T03:10:05.429Z,28.51
2023-04-30T03:11:05.469Z,28.52
2023-04-30T03:12:05.520Z,28.52
2023-04-30T03:13:05.550Z,28.52
2023-04-30T03:14:05.588Z,28.46
2023-04-30T03:15:05.608Z,28.51
2023-04-30T03:16:05.679Z,28.52
2023-04-30T03:17:05.654Z,28.49
2023-04-30T03:18:05.789Z,28.55
2023-04-30T03:19:05.784Z,28.49
2023-04-30T03:20:05.753Z,28.49
2023-04-30T03:21:05.787Z,28.52
2023-04-30T03:22:05.792Z,28.53
2023-04-30T03:23:05.853Z,28.53
2023-04-30T03:24:05.895Z,28.53
2023-04-30T03:25:05.902Z,28.55
2023-04-30T03:26:05.933Z,28.51
2023-04-30T03:27:05.956Z,28.49
2023-04-30T03:28:05.975Z,28.52
2023-04-30T03:29:06.008Z,28.55
2023-04-30T03:30:06.039Z,28.59
2023-04-30T03:31:06.107Z,28.56
2023-04-30T03:32:06.070Z,28.51
2023-04-30T03:33:06.160Z,28.53
2023-04-30T03:34:06.149Z,28.59
2023-04-30T03:35:06.228Z,28.50
2023-04-30T03:36:06.197Z,28.55
2023-04-30T03:37:06.220Z,28.55
2023-04-30T03:38:06.265Z,28.49
2023-04-30T03:39:06.274Z,28.55
2023-04-30T03:40:06.310Z,28.53
2023-04-30T03:41:06.346Z,28.51
2023-04-30T03:42:06.350Z,28.48
2023-04-30T03:43:06.393Z,28.53
2023-04-30T03:44:06.411Z,28.53
2023-04-30T03:45:06.419Z,28.53
2023-04-30T03:46:06.574Z,28.55
2023-04-30T03:47:06.489Z,28.49
2023-04-30T03:48:06.575Z,28.53
2023-04-30T03:49:06.566Z,28.49
2023-04-30T03:50:06.577Z,28.56
2023-04-30T03:51:06.614Z,28.53
2023-04-30T03:52:06.646Z,28.52
2023-04-30T03:53:06.668Z,28.58
2023-04-30T03:54:06.696Z,28.53
2023-04-30T03:55:06.733Z,28.53
2023-04-30T03:56:06.753Z,28.53
2023-04-30T03:57:06.750Z,28.49
2023-04-30T03:58:06.811Z,28.56
2023-04-30T03:59:06.897Z,28.55
2023-04-30T04:00:06.867Z,28.52
2023-04-30T04:01:06.898Z,28.54
2023-04-30T04:02:06.935Z,28.53
2023-04-30T04:03:07.001Z,28.53
2023-04-30T04:04:07.041Z,28.58
2023-04-30T04:05:07.032Z,28.59
2023-04-30T04:06:07.123Z,28.55
2023-04-30T04:07:07.080Z,28.56
2023-04-30T04:08:07.093Z,28.58
2023-04-30T04:09:07.126Z,28.59
2023-04-30T04:10:07.169Z,28.59
2023-04-30T04:11:07.184Z,28.58
2023-04-30T04:12:07.222Z,28.58
2023-04-30T04:13:07.234Z,28.58
2023-04-30T04:14:07.281Z,28.56
2023-04-30T04:15:07.297Z,28.52
2023-04-30T04:16:07.414Z,28.48
2023-04-30T04:17:07.354Z,28.58
2023-04-30T04:18:07.469Z,28.55
2023-04-30T04:19:07.434Z,28.56
2023-04-30T04:20:07.441Z,28.53
2023-04-30T04:21:07.478Z,28.56
2023-04-30T04:22:07.516Z,28.55
2023-04-30T04:23:07.515Z,28.56
2023-04-30T04:24:07.565Z,28.59
2023-04-30T04:25:07.581Z,28.55
2023-04-30T04:26:07.604Z,28.52
2023-04-30T04:27:07.646Z,28.51
2023-04-30T04:28:07.649Z,28.51
2023-04-30T04:29:07.698Z,28.52
2023-04-30T04:30:07.706Z,28.58
2023-04-30T04:31:07.702Z,28.59
2023-04-30T04:32:07.807Z,28.56
2023-04-30T04:33:07.886Z,28.55
2023-04-30T04:34:07.913Z,28.58
2023-04-30T04:35:07.829Z,28.55
2023-04-30T04:36:07.901Z,28.52
2023-04-30T04:37:07.909Z,28.56
2023-04-30T04:38:07.959Z,28.55
2023-04-30T04:39:07.980Z,28.56
2023-04-30T04:40:07.977Z,28.59
2023-04-30T04:41:08.012Z,28.52
2023-04-30T04:42:08.065Z,28.53
2023-04-30T04:43:08.066Z,28.53
2023-04-30T04:44:08.112Z,28.56
2023-04-30T04:45:08.135Z,28.55
2023-04-30T04:46:08.178Z,28.56
2023-04-30T04:47:08.188Z,28.55
2023-04-30T04:48:08.255Z,28.49
2023-04-30T04:49:08.230Z,28.50
2023-04-30T04:50:08.267Z,28.49
2023-04-30T04:51:08.279Z,28.52
2023-04-30T04:52:08.321Z,28.58
2023-04-30T04:53:08.366Z,28.56
2023-04-30T04:54:08.372Z,28.48
2023-04-30T04:55:08.401Z,28.49
2023-04-30T04:56:08.427Z,28.56
2023-04-30T04:57:08.441Z,28.53
2023-04-30T04:58:08.498Z,28.52
2023-04-30T04:59:08.517Z,28.49
2023-04-30T05:00:08.526Z,28.51
2023-04-30T05:01:08.588Z,28.54
2023-04-30T05:02:08.619Z,28.53
2023-04-30T05:03:08.729Z,28.58
2023-04-30T05:04:08.702Z,28.51
2023-04-30T05:05:08.665Z,28.59
2023-04-30T05:06:08.764Z,28.53
2023-04-30T05:07:08.744Z,28.51
2023-04-30T05:08:08.781Z,28.50
2023-04-30T05:09:08.800Z,28.51
2023-04-30T05:10:08.845Z,28.58
2023-04-30T05:11:08.826Z,28.50
2023-04-30T05:12:08.892Z,28.55
2023-04-30T05:13:08.913Z,28.55
2023-04-30T05:14:08.947Z,28.45
2023-04-30T05:15:08.960Z,28.52
2023-04-30T05:16:09.044Z,28.52
2023-04-30T05:17:09.040Z,28.48
2023-04-30T05:18:09.081Z,28.55
2023-04-30T05:19:09.106Z,28.51
2023-04-30T05:20:09.152Z,28.51
2023-04-30T05:21:09.169Z,28.53
2023-04-30T05:22:09.208Z,28.52
2023-04-30T05:23:09.229Z,28.48
2023-04-30T05:24:09.270Z,28.49
2023-04-30T05:25:09.304Z,28.51
2023-04-30T05:26:09.330Z,28.52
2023-04-30T05:27:09.370Z,28.42
2023-04-30T05:28:09.354Z,28.48
2023-04-30T05:29:09.398Z,28.55
2023-04-30T05:30:09.478Z,28.52
2023-04-30T05:31:09.461Z,28.48
2023-04-30T05:32:09.628Z,28.48
2023-04-30T05:33:09.579Z,28.44
2023-04-30T05:34:09.604Z,28.44
2023-04-30T05:35:09.598Z,28.47
2023-04-30T05:36:09.637Z,28.45
2023-04-30T05:37:09.629Z,28.52
2023-04-30T05:38:09.685Z,28.49
2023-04-30T05:39:09.714Z,28.47
2023-04-30T05:40:09.752Z,28.45
2023-04-30T05:41:09.787Z,28.50
2023-04-30T05:42:09.812Z,28.50
2023-04-30T05:43:09.921Z,28.44
2023-04-30T05:44:09.879Z,28.40
2023-04-30T05:45:09.897Z,28.47
2023-04-30T05:46:09.938Z,28.47
2023-04-30T05:47:09.978Z,28.44
2023-04-30T05:48:09.988Z,28.48
2023-04-30T05:49:10.036Z,28.44
2023-04-30T05:50:10.055Z,28.44
2023-04-30T05:51:10.058Z,28.45
2023-04-30T05:52:10.147Z,28.44
2023-04-30T05:53:10.123Z,28.42
2023-04-30T05:54:10.198Z,28.44
2023-04-30T05:55:10.206Z,28.38
2023-04-30T05:56:10.228Z,28.38
2023-04-30T05:57:10.290Z,28.42
2023-04-30T05:58:10.317Z,28.44
2023-04-30T05:59:10.346Z,28.40
2023-04-30T06:00:10.361Z,28.45
2023-04-30T06:01:10.386Z,28.41
2023-04-30T06:02:10.462Z,28.41
2023-04-30T06:03:10.476Z,28.41
2023-04-30T06:04:10.512Z,28.41
2023-04-30T06:05:10.576Z,28.38
2023-04-30T06:06:10.587Z,28.40
2023-04-30T06:07:10.592Z,28.38
2023-04-30T06:08:10.659Z,28.36
2023-04-30T06:09:10.642Z,28.36
2023-04-30T06:10:10.649Z,28.37
2023-04-30T06:11:10.696Z,28.32
2023-04-30T06:12:10.732Z,28.34
2023-04-30T06:13:10.733Z,28.31
2023-04-30T06:14:10.775Z,28.30
2023-04-30T06:15:10.825Z,28.34
2023-04-30T06:16:10.850Z,28.35
2023-04-30T06:17:10.874Z,28.34
2023-04-30T06:18:10.904Z,28.31
2023-04-30T06:19:10.907Z,28.36
2023-04-30T06:20:10.915Z,28.26
2023-04-30T06:21:10.974Z,28.29
2023-04-30T06:22:10.990Z,28.32
2023-04-30T06:23:11.035Z,28.28
2023-04-30T06:24:11.078Z,28.29
2023-04-30T06:25:11.092Z,28.26
2023-04-30T06:26:11.116Z,28.30
2023-04-30T06:27:11.151Z,28.26
2023-04-30T06:28:11.170Z,28.28
2023-04-30T06:29:11.185Z,28.29
2023-04-30T06:30:11.239Z,28.29
2023-04-30T06:31:11.365Z,28.25
2023-04-30T06:32:11.280Z,28.26
2023-04-30T06:33:11.292Z,28.28
2023-04-30T06:34:11.364Z,28.22
2023-04-30T06:35:11.361Z,28.22
2023-04-30T06:36:11.364Z,28.26
2023-04-30T06:37:11.416Z,28.28
2023-04-30T06:38:11.455Z,28.25
2023-04-30T06:39:11.465Z,28.31
2023-04-30T06:40:11.527Z,28.23
2023-04-30T06:41:11.492Z,28.22
2023-04-30T06:42:11.555Z,28.28
2023-04-30T06:43:11.571Z,28.28
2023-04-30T06:44:11.602Z,28.20
2023-04-30T06:45:11.611Z,28.21
2023-04-30T06:46:11.688Z,28.21
2023-04-30T06:47:11.645Z,28.21
2023-04-30T06:48:11.701Z,28.23
2023-04-30T06:49:11.709Z,28.18
2023-04-30T06:50:11.716Z,28.21
2023-04-30T06:51:11.749Z,28.21
2023-04-30T06:52:11.753Z,28.17
2023-04-30T06:53:11.795Z,28.17
2023-04-30T06:54:11.827Z,28.21
2023-04-30T06:55:11.856Z,28.17
2023-04-30T06:56:11.843Z,28.17
2023-04-30T06:57:11.836Z,28.18
2023-04-30T06:58:11.871Z,28.15
2023-04-30T06:59:11.874Z,28.17
2023-04-30T07:00:11.930Z,28.20
2023-04-30T07:01:11.954Z,28.17
2023-04-30T07:02:11.999Z,28.14
2023-04-30T07:03:12.132Z,28.18
2023-04-30T07:04:12.014Z,28.16
2023-04-30T07:05:11.976Z,28.14
2023-04-30T07:06:12.078Z,28.14
2023-04-30T07:07:12.045Z,28.17
2023-04-30T07:08:12.078Z,28.14
2023-04-30T07:09:12.079Z,28.09
2023-04-30T07:10:12.096Z,28.12
2023-04-30T07:11:12.160Z,28.09
2023-04-30T07:12:12.184Z,28.09
2023-04-30T07:13:12.133Z,28.06
2023-04-30T07:14:12.128Z,28.08
2023-04-30T07:15:12.134Z,28.06
2023-04-30T07:16:12.210Z,28.06
2023-04-30T07:17:12.181Z,28.01
2023-04-30T07:18:12.247Z,28.02
2023-04-30T07:19:12.159Z,28.06
2023-04-30T07:20:12.209Z,28.02
2023-04-30T07:21:12.194Z,28.00
2023-04-30T07:22:12.200Z,28.02
2023-04-30T07:23:12.220Z,27.98
2023-04-30T07:24:12.233Z,27.90
2023-04-30T07:25:12.234Z,27.98
2023-04-30T07:26:12.255Z,28.02
2023-04-30T07:27:12.243Z,28.01
2023-04-30T07:28:12.259Z,28.03
2023-04-30T07:29:12.251Z,27.95
2023-04-30T07:30:12.268Z,28.01
2023-04-30T07:31:12.335Z,27.97
2023-04-30T07:32:12.280Z,27.98
2023-04-30T07:33:12.345Z,27.98
2023-04-30T07:34:12.348Z,27.95
2023-04-30T07:35:12.329Z,27.88
2023-04-30T07:36:12.308Z,27.91
2023-04-30T07:37:12.341Z,27.94
2023-04-30T07:38:12.376Z,27.94
2023-04-30T07:39:12.343Z,27.96
2023-04-30T07:40:15.409Z,27.93
2023-04-30T07:41:13.347Z,27.88
2023-04-30T07:42:12.341Z,27.89
2023-04-30T07:43:12.337Z,27.90
2023-04-30T07:44:12.323Z,27.87
2023-04-30T07:45:12.311Z,27.88
2023-04-30T07:46:12.439Z,27.78
2023-04-30T07:47:12.324Z,27.82
2023-04-30T07:48:12.318Z,27.83
2023-04-30T07:49:12.315Z,27.78
2023-04-30T07:50:12.288Z,27.59
2023-04-30T07:51:12.283Z,27.61
2023-04-30T07:52:12.285Z,27.76
2023-04-30T07:53:12.270Z,27.80
2023-04-30T07:54:12.245Z,27.82
2023-04-30T07:55:12.254Z,27.74
2023-04-30T07:56:12.256Z,27.69
2023-04-30T07:57:12.244Z,27.82
2023-04-30T07:58:12.239Z,27.71
2023-04-30T07:59:12.247Z,27.81
2023-04-30T08:00:12.211Z,27.74
2023-04-30T08:01:12.199Z,27.78
2023-04-30T08:02:12.335Z,27.78
2023-04-30T08:03:12.295Z,27.75
2023-04-30T08:04:12.280Z,27.67
2023-04-30T08:05:12.205Z,27.62
2023-04-30T08:06:12.219Z,27.67
2023-04-30T08:07:12.188Z,27.71
2023-04-30T08:08:12.187Z,27.70
2023-04-30T08:09:12.147Z,27.58
2023-04-30T08:10:12.183Z,27.69
2023-04-30T08:11:12.140Z,27.72
2023-04-30T08:12:12.165Z,27.72
2023-04-30T08:13:12.151Z,27.76
2023-04-30T08:14:12.133Z,27.81
2023-04-30T08:15:12.143Z,27.85
2023-04-30T08:16:12.137Z,27.80
2023-04-30T08:17:12.110Z,27.84
2023-04-30T08:18:12.183Z,27.78
2023-04-30T08:19:12.126Z,27.81
2023-04-30T08:20:12.130Z,27.78
2023-04-30T08:21:12.141Z,27.80
2023-04-30T08:22:12.092Z,27.83
2023-04-30T08:23:12.090Z,27.86
2023-04-30T08:24:12.121Z,27.81
2023-04-30T08:25:12.147Z,27.79
2023-04-30T08:26:12.112Z,27.74
2023-04-30T08:27:12.112Z,27.74
2023-04-30T08:28:12.129Z,27.75
2023-04-30T08:29:12.147Z,27.78
2023-04-30T08:30:12.122Z,27.76
2023-04-30T08:31:12.105Z,27.75
2023-04-30T08:32:12.257Z,27.74
2023-04-30T08:33:12.154Z,27.80
2023-04-30T08:34:12.111Z,27.71
2023-04-30T08:35:12.110Z,27.65
2023-04-30T08:36:12.105Z,27.47
2023-04-30T08:37:12.099Z,27.57
2023-04-30T08:38:12.135Z,27.58
2023-04-30T08:39:12.201Z,27.57
2023-04-30T08:40:12.164Z,27.61
2023-04-30T08:41:12.140Z,27.67
2023-04-30T08:42:12.195Z,27.65
2023-04-30T08:43:12.243Z,27.66
2023-04-30T08:44:12.298Z,27.71
2023-04-30T08:45:12.281Z,27.69
2023-04-30T08:46:12.366Z,27.37
2023-04-30T08:47:12.364Z,27.67
2023-04-30T08:48:12.384Z,27.74
2023-04-30T08:49:12.418Z,27.64
2023-04-30T08:50:12.476Z,27.67
2023-04-30T08:51:12.514Z,27.70
2023-04-30T08:52:12.570Z,27.49
2023-04-30T08:53:12.625Z,27.57
2023-04-30T08:54:12.684Z,27.63
2023-04-30T08:55:12.755Z,27.65
2023-04-30T08:56:12.816Z,27.56
2023-04-30T08:57:12.868Z,27.52
2023-04-30T08:58:12.915Z,27.59
2023-04-30T08:59:12.969Z,27.43
2023-04-30T09:00:13.050Z,27.46
2023-04-30T09:01:13.132Z,27.46
2023-04-30T09:02:13.241Z,27.48
2023-04-30T09:03:13.304Z,27.52
2023-04-30T09:04:13.445Z,27.34
2023-04-30T09:05:13.312Z,27.42
2023-04-30T09:06:13.426Z,27.38
2023-04-30T09:07:13.381Z,27.50
2023-04-30T09:08:13.415Z,27.55
2023-04-30T09:09:13.412Z,27.55
2023-04-30T09:10:13.452Z,27.43
2023-04-30T09:11:13.465Z,27.48
2023-04-30T09:12:14.129Z,27.51
2023-04-30T09:13:13.541Z,27.46
2023-04-30T09:14:13.563Z,27.44
2023-04-30T09:15:13.627Z,27.43
2023-04-30T09:16:13.641Z,27.44
2023-04-30T09:17:13.657Z,27.37
2023-04-30T09:18:13.752Z,27.43
2023-04-30T09:19:13.685Z,27.46
2023-04-30T09:20:13.714Z,27.40
2023-04-30T09:21:13.724Z,27.39
2023-04-30T09:22:13.799Z,27.43
2023-04-30T09:23:13.805Z,27.44
2023-04-30T09:24:13.833Z,27.17
2023-04-30T09:25:13.859Z,27.20
2023-04-30T09:26:13.864Z,27.32
2023-04-30T09:27:13.878Z,27.17
2023-04-30T09:28:13.905Z,27.32
2023-04-30T09:29:14.041Z,27.17
2023-04-30T09:30:13.908Z,27.26
2023-04-30T09:31:13.963Z,27.30
2023-04-30T09:32:13.922Z,27.36
2023-04-30T09:33:13.991Z,27.36
2023-04-30T09:34:13.970Z,27.36
2023-04-30T09:35:13.990Z,27.27
2023-04-30T09:36:14.000Z,27.29
2023-04-30T09:37:13.992Z,27.20
2023-04-30T09:38:14.031Z,27.13
2023-04-30T09:39:15.635Z,27.16
2023-04-30T09:40:14.029Z,27.11
2023-04-30T09:41:14.038Z,27.23
2023-04-30T09:42:14.057Z,27.31
2023-04-30T09:43:14.049Z,27.25
2023-04-30T09:44:14.072Z,27.25
2023-04-30T09:45:14.090Z,27.28
2023-04-30T09:46:14.145Z,27.27
2023-04-30T09:47:14.101Z,27.28
2023-04-30T09:48:17.537Z,27.25
2023-04-30T09:49:14.089Z,27.18
2023-04-30T09:50:14.068Z,27.21
2023-04-30T09:51:14.086Z,27.22
2023-04-30T09:52:14.065Z,27.14
2023-04-30T09:53:14.052Z,27.10
2023-04-30T09:54:14.081Z,27.16
2023-04-30T09:55:14.031Z,27.12
2023-04-30T09:56:14.033Z,27.19
2023-04-30T09:57:14.021Z,27.20
2023-04-30T09:58:14.017Z,27.17
2023-04-30T09:59:14.046Z,27.10
2023-04-30T10:00:13.988Z,27.06
2023-04-30T10:01:14.005Z,27.13
2023-04-30T10:02:14.006Z,27.04
2023-04-30T10:03:14.055Z,27.11
2023-04-30T10:04:14.117Z,27.11
2023-04-30T10:05:13.961Z,27.07
2023-04-30T10:06:14.129Z,27.07
2023-04-30T10:07:15.740Z,27.10
2023-04-30T10:08:13.961Z,27.08
2023-04-30T10:09:13.953Z,27.08
2023-04-30T10:10:13.951Z,27.09
2023-04-30T10:11:14.484Z,27.06
2023-04-30T10:12:13.937Z,27.05
2023-04-30T10:13:13.905Z,27.06
2023-04-30T10:14:13.938Z,27.08
2023-04-30T10:15:13.906Z,27.03
2023-04-30T10:16:13.952Z,27.02
2023-04-30T10:17:13.848Z,27.07
2023-04-30T10:18:13.889Z,27.05
2023-04-30T10:19:13.859Z,27.03
2023-04-30T10:20:14.004Z,27.13
2023-04-30T10:21:13.823Z,27.10
2023-04-30T10:22:13.835Z,27.05
2023-04-30T10:23:13.838Z,26.99
2023-04-30T10:24:13.817Z,27.04
2023-04-30T10:25:13.828Z,27.01
2023-04-30T10:26:13.810Z,26.97
2023-04-30T10:27:13.814Z,27.00
2023-04-30T10:28:13.802Z,26.98
2023-04-30T10:29:13.789Z,27.00
2023-04-30T10:30:13.792Z,26.98
2023-04-30T10:31:13.772Z,27.04
2023-04-30T10:32:13.820Z,27.00
2023-04-30T10:33:16.429Z,27.01
2023-04-30T10:34:13.789Z,27.06
2023-04-30T10:35:13.739Z,27.04
2023-04-30T10:36:13.745Z,27.03
2023-04-30T10:37:13.726Z,27.01
2023-04-30T10:38:13.715Z,27.03
2023-04-30T10:39:13.736Z,27.06
2023-04-30T10:40:13.756Z,27.07
2023-04-30T10:41:13.711Z,27.02
2023-04-30T10:42:13.704Z,27.00
2023-04-30T10:43:13.698Z,27.05
2023-04-30T10:44:13.708Z,27.03
2023-04-30T10:45:13.674Z,27.03
2023-04-30T10:46:13.685Z,27.06
2023-04-30T10:47:13.679Z,27.02
2023-04-30T10:48:13.683Z,27.01
2023-04-30T10:49:13.654Z,27.07
2023-04-30T10:50:13.683Z,27.09
2023-04-30T10:51:13.645Z,27.09
2023-04-30T10:52:13.644Z,27.13
2023-04-30T10:53:13.616Z,27.02
2023-04-30T10:54:13.603Z,27.05
2023-04-30T10:55:13.613Z,27.08
2023-04-30T10:56:13.587Z,27.06
2023-04-30T10:57:13.586Z,27.04
2023-04-30T10:58:13.593Z,27.01
2023-04-30T10:59:13.568Z,27.04
2023-04-30T11:00:13.726Z,27.02
2023-04-30T11:01:13.686Z,27.04
2023-04-30T11:02:13.580Z,27.05
2023-04-30T11:03:13.543Z,27.06
2023-04-30T11:04:13.570Z,26.99
2023-04-30T11:05:13.643Z,27.04
2023-04-30T11:06:13.610Z,27.05
2023-04-30T11:07:13.507Z,26.98
2023-04-30T11:08:13.508Z,27.05
2023-04-30T11:09:13.521Z,27.04
2023-04-30T11:10:13.496Z,27.05
2023-04-30T11:11:13.483Z,27.05
2023-04-30T11:12:13.493Z,27.07
2023-04-30T11:13:13.556Z,27.14
2023-04-30T11:14:13.606Z,27.05
2023-04-30T11:15:13.669Z,27.08
2023-04-30T11:16:13.726Z,27.05
2023-04-30T11:17:13.739Z,27.11
2023-04-30T11:18:13.808Z,27.07
2023-04-30T11:19:13.901Z,27.08
2023-04-30T11:20:13.901Z,27.08
2023-04-30T11:21:13.947Z,27.07
2023-04-30T11:22:13.992Z,27.08
2023-04-30T11:23:19.203Z,27.14
2023-04-30T11:24:15.026Z,27.14
2023-04-30T11:25:14.049Z,27.14
2023-04-30T11:26:14.000Z,27.10
2023-04-30T11:27:14.026Z,27.12
2023-04-30T11:28:14.095Z,27.08
2023-04-30T11:29:14.017Z,27.10
2023-04-30T11:30:13.975Z,27.15
2023-04-30T11:31:15.269Z,27.18
2023-04-30T11:32:13.993Z,27.13
2023-04-30T11:33:14.000Z,27.14
2023-04-30T11:34:13.961Z,27.17
2023-04-30T11:35:13.955Z,27.15
2023-04-30T11:36:14.024Z,27.15
2023-04-30T11:37:14.033Z,27.11
2023-04-30T11:38:14.079Z,27.12
2023-04-30T11:39:14.119Z,27.10
2023-04-30T11:40:14.267Z,27.20
2023-04-30T11:41:14.292Z,27.15
2023-04-30T11:42:14.293Z,27.20
2023-04-30T11:43:14.313Z,27.14
2023-04-30T11:44:14.375Z,27.16
2023-04-30T11:45:14.412Z,27.15
2023-04-30T11:46:14.483Z,27.18
2023-04-30T11:47:14.523Z,27.18
2023-04-30T11:48:14.701Z,27.21
2023-04-30T11:49:14.636Z,27.16
2023-04-30T11:50:14.694Z,27.12
2023-04-30T11:51:14.802Z,27.19
2023-04-30T11:52:14.793Z,27.18
2023-04-30T11:53:14.820Z,27.15
2023-04-30T11:54:14.870Z,27.25
2023-04-30T11:55:14.912Z,27.19
2023-04-30T11:56:14.934Z,27.20
2023-04-30T11:57:14.953Z,27.25
2023-04-30T11:58:14.999Z,27.23
2023-04-30T11:59:15.021Z,27.21
2023-04-30T12:00:15.044Z,27.20
2023-04-30T12:01:15.058Z,27.20
2023-04-30T12:02:15.150Z,27.22
2023-04-30T12:03:15.244Z,27.19
2023-04-30T12:04:15.302Z,27.22
2023-04-30T12:05:15.282Z,27.17
2023-04-30T12:06:15.325Z,27.23
2023-04-30T12:07:15.402Z,27.19
2023-04-30T12:08:15.436Z,27.22
2023-04-30T12:09:15.476Z,27.29
2023-04-30T12:10:15.561Z,27.19
2023-04-30T12:11:15.613Z,27.20
2023-04-30T12:12:15.662Z,27.19
2023-04-30T12:13:15.706Z,27.22
2023-04-30T12:14:15.751Z,27.25
2023-04-30T12:15:15.825Z,27.20
2023-04-30T12:16:15.935Z,27.20
2023-04-30T12:17:15.961Z,27.22
2023-04-30T12:18:15.992Z,27.22
2023-04-30T12:19:16.092Z,27.25
2023-04-30T12:20:16.132Z,27.20
2023-04-30T12:21:16.187Z,27.23
2023-04-30T12:22:16.270Z,27.22
2023-04-30T12:23:16.312Z,27.26
2023-04-30T12:24:16.400Z,27.20
2023-04-30T12:25:16.435Z,27.11
2023-04-30T12:26:16.482Z,27.17
2023-04-30T12:27:16.577Z,27.20
2023-04-30T12:28:16.596Z,27.14
2023-04-30T12:29:16.671Z,27.16
2023-04-30T12:30:16.736Z,27.22
2023-04-30T12:31:16.783Z,27.11
2023-04-30T12:32:16.900Z,27.06
2023-04-30T12:33:16.974Z,27.11
2023-04-30T12:34:16.989Z,27.11
2023-04-30T12:35:17.049Z,27.14
2023-04-30T12:36:17.110Z,27.08
2023-04-30T12:37:17.137Z,27.13
2023-04-30T12:38:17.220Z,26.87
2023-04-30T12:39:17.276Z,27.08
2023-04-30T12:40:17.339Z,27.12
2023-04-30T12:41:17.382Z,27.11
2023-04-30T12:42:17.445Z,26.99
2023-04-30T12:43:17.510Z,27.06
2023-04-30T12:44:17.577Z,27.11
2023-04-30T12:45:17.626Z,27.18
2023-04-30T12:46:17.822Z,27.02
2023-04-30T12:47:17.740Z,27.14
2023-04-30T12:48:17.848Z,27.18
2023-04-30T12:49:17.890Z,27.14
2023-04-30T12:50:17.957Z,27.11
2023-04-30T12:51:18.004Z,27.21
2023-04-30T12:52:18.043Z,27.09